Craig, Iowa
Current Conditions -  °F | °C
As of 2:35 PM on Thursday 27 Nov 2014 (Local Time) from KLRJ Reporting Station
Overcast Overcast  
Wind Chill:   Ceiling: 4300
Heat Index: 12°   Visibility: 10mi
Dew Point:   Wind: 9mph
Humidity: 67%   Direction: 130°SE
Pressure: 30.37"   Gusts: NA
Location:  42.9°N, 96.31°W
Report Text: KLRJ 272035Z AUTO 13008KT 10SM OVC043 M11/M16 A3037 RMK AO2
Loading
Personal Weather Stations






























Interactive Weather Map New forecast layout! Learn more

10-Day Weather Forecast

Advertisements
Track Severe Weather on mobile